createdAt,value
2016-05-08T00:00:55.635Z,22.88
2016-05-08T00:01:55.496Z,22.89
2016-05-08T00:02:55.687Z,22.82
2016-05-08T00:03:55.737Z,22.97
2016-05-08T00:04:55.771Z,22.84
2016-05-08T00:05:55.820Z,22.88
2016-05-08T00:06:55.854Z,22.85
2016-05-08T00:07:55.904Z,22.85
2016-05-08T00:08:55.953Z,22.82
2016-05-08T00:09:55.831Z,22.89
2016-05-08T00:10:56.021Z,22.81
2016-05-08T00:11:56.054Z,22.86
2016-05-08T00:12:56.792Z,22.84
2016-05-08T00:13:56.154Z,22.79
2016-05-08T00:14:56.203Z,22.91
2016-05-08T00:15:56.222Z,22.91
2016-05-08T00:16:56.256Z,22.88
2016-05-08T00:17:56.306Z,22.88
2016-05-08T00:18:56.198Z,22.92
2016-05-08T00:19:56.373Z,22.89
2016-05-08T00:20:56.422Z,22.92
2016-05-08T00:21:56.456Z,22.86
2016-05-08T00:22:56.523Z,22.89
2016-05-08T00:23:56.541Z,22.82
2016-05-08T00:24:56.582Z,22.84
2016-05-08T00:25:56.474Z,22.79
2016-05-08T00:26:56.665Z,22.92
2016-05-08T00:27:56.854Z,22.84
2016-05-08T00:28:56.749Z,22.91
2016-05-08T00:29:56.798Z,22.86
2016-05-08T00:30:56.816Z,22.85
2016-05-08T00:31:56.866Z,22.92
2016-05-08T00:32:56.915Z,22.89
2016-05-08T00:33:56.948Z,22.85
2016-05-08T00:34:57.030Z,22.92
2016-05-08T00:35:57.033Z,22.84
2016-05-08T00:36:57.067Z,22.89
2016-05-08T00:37:57.101Z,22.91
2016-05-08T00:38:57.166Z,22.91
2016-05-08T00:39:57.184Z,22.97
2016-05-08T00:40:57.233Z,22.89
2016-05-08T00:41:57.267Z,22.86
2016-05-08T00:42:57.692Z,22.91
2016-05-08T00:43:57.351Z,22.91
2016-05-08T00:44:57.385Z,22.89
2016-05-08T00:45:57.419Z,22.88
2016-05-08T00:46:57.469Z,22.86
2016-05-08T00:47:57.519Z,22.84
2016-05-08T00:48:57.552Z,22.81
2016-05-08T00:49:57.586Z,22.82
2016-05-08T00:50:57.635Z,22.94
2016-05-08T00:51:57.669Z,22.82
2016-05-08T00:52:57.703Z,22.92
2016-05-08T00:53:57.753Z,22.86
2016-05-08T00:54:57.787Z,22.85
2016-05-08T00:55:57.837Z,22.85
2016-05-08T00:56:57.870Z,22.82
2016-05-08T00:57:57.920Z,22.91
2016-05-08T00:58:57.953Z,22.86
2016-05-08T00:59:57.988Z,22.89
2016-05-08T01:00:58.038Z,22.81
2016-05-08T01:01:58.071Z,22.89
2016-05-08T01:02:58.120Z,22.84
2016-05-08T01:03:58.155Z,22.86
2016-05-08T01:04:58.204Z,22.89
2016-05-08T01:05:58.239Z,22.91
2016-05-08T01:06:58.273Z,22.89
2016-05-08T01:07:58.306Z,22.86
2016-05-08T01:08:58.214Z,22.92
2016-05-08T01:09:58.249Z,22.91
2016-05-08T01:10:58.455Z,22.86
2016-05-08T01:11:58.473Z,22.84
2016-05-08T01:12:58.523Z,22.84
2016-05-08T01:13:58.556Z,22.88
2016-05-08T01:14:58.606Z,22.86
2016-05-08T01:15:58.641Z,22.91
2016-05-08T01:16:58.675Z,22.92
2016-05-08T01:17:58.724Z,22.92
2016-05-08T01:18:58.774Z,22.86
2016-05-08T01:19:58.791Z,22.91
2016-05-08T01:20:58.841Z,22.86
2016-05-08T01:21:58.891Z,22.81
2016-05-08T01:22:58.925Z,22.96
2016-05-08T01:23:58.974Z,22.88
2016-05-08T01:24:59.009Z,22.88
2016-05-08T01:25:59.043Z,22.88
2016-05-08T01:26:59.092Z,22.84
2016-05-08T01:27:59.126Z,22.86
2016-05-08T01:28:59.161Z,22.88
2016-05-08T01:29:59.054Z,22.92
2016-05-08T01:30:59.244Z,22.88
2016-05-08T01:31:59.121Z,22.81
2016-05-08T01:32:59.328Z,22.85
2016-05-08T01:33:59.361Z,22.88
2016-05-08T01:34:59.396Z,22.88
2016-05-08T01:35:59.460Z,22.85
2016-05-08T01:36:59.479Z,22.78
2016-05-08T01:37:59.528Z,22.92
2016-05-08T01:38:59.563Z,22.86
2016-05-08T01:39:59.643Z,22.81
2016-05-08T01:40:59.646Z,22.84
2016-05-08T01:41:59.679Z,22.88
2016-05-08T01:42:59.573Z,22.81
2016-05-08T01:43:59.763Z,22.89
2016-05-08T01:44:59.813Z,22.89
2016-05-08T01:45:59.847Z,22.91
2016-05-08T01:46:59.881Z,22.92
2016-05-08T01:47:59.774Z,22.91
2016-05-08T01:48:59.980Z,22.88
2016-05-08T01:50:00.014Z,22.88
2016-05-08T01:51:00.048Z,22.89
2016-05-08T01:52:00.097Z,22.88
2016-05-08T01:53:00.131Z,22.92
2016-05-08T01:54:00.181Z,22.91
2016-05-08T01:55:00.215Z,22.81
2016-05-08T01:56:00.249Z,22.91
2016-05-08T01:57:00.298Z,22.91
2016-05-08T01:58:00.504Z,22.86
2016-05-08T01:59:00.225Z,22.86
2016-05-08T02:00:00.260Z,22.91
2016-05-08T02:01:00.450Z,22.84
2016-05-08T02:02:00.500Z,22.86
2016-05-08T02:03:00.533Z,22.92
2016-05-08T02:04:00.410Z,22.85
2016-05-08T02:05:00.616Z,22.88
2016-05-08T02:06:00.651Z,22.86
2016-05-08T02:07:00.700Z,22.85
2016-05-08T02:08:00.735Z,22.88
2016-05-08T02:09:00.768Z,22.86
2016-05-08T02:10:00.817Z,22.86
2016-05-08T02:11:00.852Z,22.88
2016-05-08T02:12:00.902Z,22.86
2016-05-08T02:13:01.310Z,22.86
2016-05-08T02:14:00.985Z,22.86
2016-05-08T02:15:00.862Z,22.81
2016-05-08T02:16:01.053Z,22.89
2016-05-08T02:17:01.101Z,22.92
2016-05-08T02:18:01.137Z,22.91
2016-05-08T02:19:01.170Z,22.92
2016-05-08T02:20:01.220Z,22.88
2016-05-08T02:21:01.269Z,22.92
2016-05-08T02:22:01.319Z,22.91
2016-05-08T02:23:01.337Z,22.91
2016-05-08T02:24:01.387Z,22.86
2016-05-08T02:25:01.264Z,22.94
2016-05-08T02:26:01.455Z,22.86
2016-05-08T02:27:01.503Z,22.92
2016-05-08T02:28:01.553Z,22.86
2016-05-08T02:29:01.572Z,22.88
2016-05-08T02:30:01.466Z,22.88
2016-05-08T02:31:01.671Z,22.91
2016-05-08T02:32:01.705Z,22.92
2016-05-08T02:33:01.583Z,22.88
2016-05-08T02:34:01.788Z,22.85
2016-05-08T02:35:01.822Z,22.81
2016-05-08T02:36:01.857Z,22.86
2016-05-08T02:37:01.905Z,22.88
2016-05-08T02:38:01.955Z,22.86
2016-05-08T02:39:01.990Z,22.88
2016-05-08T02:40:02.023Z,22.89
2016-05-08T02:41:02.057Z,22.92
2016-05-08T02:42:02.140Z,22.86
2016-05-08T02:43:02.236Z,22.92
2016-05-08T02:44:02.317Z,22.91
2016-05-08T02:45:02.399Z,22.82
2016-05-08T02:46:02.324Z,22.88
2016-05-08T02:47:02.573Z,22.84
2016-05-08T02:48:02.625Z,22.84
2016-05-08T02:49:02.519Z,22.86
2016-05-08T02:50:02.727Z,22.86
2016-05-08T02:51:02.794Z,22.94
2016-05-08T02:52:02.837Z,22.85
2016-05-08T02:53:02.877Z,22.91
2016-05-08T02:54:02.778Z,22.86
2016-05-08T02:55:02.989Z,22.88
2016-05-08T02:56:03.028Z,22.94
2016-05-08T02:57:03.066Z,22.88
2016-05-08T02:58:03.243Z,22.85
2016-05-08T02:59:03.155Z,22.91
2016-05-08T03:00:03.035Z,22.88
2016-05-08T03:01:03.227Z,22.86
2016-05-08T03:02:03.122Z,22.86
2016-05-08T03:03:03.328Z,22.89
2016-05-08T03:04:03.362Z,22.81
2016-05-08T03:05:03.241Z,22.92
2016-05-08T03:06:03.448Z,22.94
2016-05-08T03:07:03.482Z,22.88
2016-05-08T03:08:03.517Z,22.89
2016-05-08T03:09:03.567Z,22.91
2016-05-08T03:10:03.601Z,22.92
2016-05-08T03:11:03.651Z,22.91
2016-05-08T03:12:03.529Z,22.88
2016-05-08T03:13:03.750Z,22.88
2016-05-08T03:14:03.768Z,22.88
2016-05-08T03:15:03.818Z,22.84
2016-05-08T03:16:03.851Z,22.89
2016-05-08T03:17:03.902Z,22.88
2016-05-08T03:18:03.779Z,22.88
2016-05-08T03:19:03.985Z,22.88
2016-05-08T03:20:04.003Z,22.91
2016-05-08T03:21:04.054Z,22.91
2016-05-08T03:22:04.087Z,22.85
2016-05-08T03:23:04.137Z,22.92
2016-05-08T03:24:04.170Z,22.86
2016-05-08T03:25:04.064Z,22.91
2016-05-08T03:26:04.253Z,22.88
2016-05-08T03:27:04.148Z,22.86
2016-05-08T03:28:04.181Z,22.82
2016-05-08T03:29:04.215Z,22.84
2016-05-08T03:30:04.420Z,22.91
2016-05-08T03:31:04.456Z,22.84
2016-05-08T03:32:04.488Z,22.85
2016-05-08T03:33:04.539Z,22.82
2016-05-08T03:34:04.588Z,22.91
2016-05-08T03:35:04.621Z,22.89
2016-05-08T03:36:04.656Z,22.84
2016-05-08T03:37:04.721Z,22.88
2016-05-08T03:38:04.739Z,22.92
2016-05-08T03:39:04.773Z,22.81
2016-05-08T03:40:04.822Z,22.85
2016-05-08T03:41:04.872Z,22.89
2016-05-08T03:42:04.906Z,22.89
2016-05-08T03:43:05.097Z,22.85
2016-05-08T03:44:04.974Z,22.86
2016-05-08T03:45:05.024Z,22.96
2016-05-08T03:46:05.057Z,22.99
2016-05-08T03:47:05.107Z,22.96
2016-05-08T03:48:05.141Z,22.94
2016-05-08T03:49:05.191Z,22.97
2016-05-08T03:50:05.224Z,22.96
2016-05-08T03:51:05.259Z,22.92
2016-05-08T03:52:05.151Z,22.97
2016-05-08T03:53:05.342Z,22.97
2016-05-08T03:54:05.376Z,23.01
2016-05-08T03:55:05.426Z,23.01
2016-05-08T03:56:05.459Z,23.01
2016-05-08T03:57:05.509Z,22.96
2016-05-08T03:58:05.559Z,23.03
2016-05-08T03:59:05.577Z,22.99
2016-05-08T04:00:05.626Z,22.99
2016-05-08T04:01:05.676Z,22.99
2016-05-08T04:02:05.711Z,23.01
2016-05-08T04:03:05.744Z,22.96
2016-05-08T04:04:05.794Z,22.92
2016-05-08T04:05:05.827Z,22.96
2016-05-08T04:06:05.861Z,22.99
2016-05-08T04:07:05.911Z,23
2016-05-08T04:08:05.945Z,22.94
2016-05-08T04:09:05.979Z,22.99
2016-05-08T04:10:06.028Z,22.94
2016-05-08T04:11:06.063Z,22.92
2016-05-08T04:12:06.113Z,22.99
2016-05-08T04:13:06.818Z,22.99
2016-05-08T04:14:06.196Z,22.96
2016-05-08T04:15:06.229Z,22.94
2016-05-08T04:16:06.263Z,22.97
2016-05-08T04:17:06.313Z,22.99
2016-05-08T04:18:06.347Z,22.94
2016-05-08T04:19:06.396Z,22.94
2016-05-08T04:20:06.446Z,23.03
2016-05-08T04:21:06.480Z,23.04
2016-05-08T04:22:06.515Z,23.04
2016-05-08T04:23:06.548Z,23.1
2016-05-08T04:24:06.597Z,23.04
2016-05-08T04:25:06.631Z,23.03
2016-05-08T04:26:06.681Z,23.06
2016-05-08T04:27:06.559Z,23
2016-05-08T04:28:06.781Z,23
2016-05-08T04:29:06.798Z,22.96
2016-05-08T04:30:06.831Z,23.07
2016-05-08T04:31:06.881Z,23.09
2016-05-08T04:32:06.917Z,23.04
2016-05-08T04:33:06.965Z,23.04
2016-05-08T04:34:06.999Z,23.01
2016-05-08T04:35:07.033Z,23.07
2016-05-08T04:36:07.082Z,23
2016-05-08T04:37:07.117Z,23.07
2016-05-08T04:38:07.166Z,23
2016-05-08T04:39:07.200Z,22.99
2016-05-08T04:40:07.233Z,23.01
2016-05-08T04:41:07.284Z,23.06
2016-05-08T04:42:07.318Z,23.03
2016-05-08T04:43:07.210Z,23.03
2016-05-08T04:44:07.401Z,23.06
2016-05-08T04:45:07.452Z,23.06
2016-05-08T04:46:07.484Z,23.06
2016-05-08T04:47:07.519Z,23.1
2016-05-08T04:48:07.568Z,23.06
2016-05-08T04:49:07.601Z,23
2016-05-08T04:50:07.651Z,23.06
2016-05-08T04:51:07.686Z,23.07
2016-05-08T04:52:07.720Z,23.04
2016-05-08T04:53:07.769Z,23.09
2016-05-08T04:54:07.803Z,22.99
2016-05-08T04:55:07.696Z,23.12
2016-05-08T04:56:07.886Z,23.09
2016-05-08T04:57:07.937Z,22.99
2016-05-08T04:58:08.236Z,23.1
2016-05-08T04:59:08.003Z,23.06
2016-05-08T05:00:08.053Z,23.06
2016-05-08T05:01:08.087Z,23.14
2016-05-08T05:02:08.137Z,23.09
2016-05-08T05:03:08.171Z,23.1
2016-05-08T05:04:08.205Z,23.01
2016-05-08T05:05:08.255Z,23.06
2016-05-08T05:06:08.288Z,23.12
2016-05-08T05:07:08.338Z,23.06
2016-05-08T05:08:08.372Z,23.09
2016-05-08T05:09:08.422Z,23.04
2016-05-08T05:10:08.455Z,23.09
2016-05-08T05:11:08.505Z,23.06
2016-05-08T05:12:08.539Z,23.07
2016-05-08T05:13:08.572Z,23.06
2016-05-08T05:14:08.607Z,23.07
2016-05-08T05:15:08.500Z,23.07
2016-05-08T05:16:08.690Z,23.15
2016-05-08T05:17:08.740Z,23.09
2016-05-08T05:18:08.774Z,23.01
2016-05-08T05:19:08.807Z,23.18
2016-05-08T05:20:08.857Z,23.07
2016-05-08T05:21:08.907Z,23.16
2016-05-08T05:22:08.941Z,23.06
2016-05-08T05:23:08.990Z,23.14
2016-05-08T05:24:09.009Z,23.04
2016-05-08T05:25:09.059Z,23.15
2016-05-08T05:26:09.093Z,23.12
2016-05-08T05:27:09.157Z,23.07
2016-05-08T05:28:09.645Z,23.09
2016-05-08T05:29:09.209Z,23.16
2016-05-08T05:30:09.259Z,23.1
2016-05-08T05:31:09.309Z,23.1
2016-05-08T05:32:09.343Z,23.1
2016-05-08T05:33:09.376Z,23.15
2016-05-08T05:34:09.426Z,23.19
2016-05-08T05:35:09.461Z,23.12
2016-05-08T05:36:09.510Z,23.19
2016-05-08T05:37:09.544Z,23.14
2016-05-08T05:38:09.593Z,23.07
2016-05-08T05:39:09.627Z,23.12
2016-05-08T05:40:09.677Z,23.16
2016-05-08T05:41:09.711Z,23.04
2016-05-08T05:42:09.745Z,23.18
2016-05-08T05:43:09.747Z,23.09
2016-05-08T05:44:09.827Z,23.18
2016-05-08T05:45:09.862Z,23.09
2016-05-08T05:46:09.928Z,23.18
2016-05-08T05:47:09.946Z,23.09
2016-05-08T05:48:09.996Z,23.15
2016-05-08T05:49:10.029Z,23.15
2016-05-08T05:50:10.079Z,23.15
2016-05-08T05:51:10.112Z,23.16
2016-05-08T05:52:10.147Z,23.14
2016-05-08T05:53:10.196Z,23.18
2016-05-08T05:54:10.230Z,23.21
2016-05-08T05:55:10.279Z,23.16
2016-05-08T05:56:10.313Z,23.18
2016-05-08T05:57:10.347Z,23.16
2016-05-08T05:58:10.397Z,23.16
2016-05-08T05:59:10.431Z,23.16
2016-05-08T06:00:10.481Z,23.12
2016-05-08T06:01:10.514Z,23.16
2016-05-08T06:02:10.564Z,23.16
2016-05-08T06:03:10.614Z,23.12
2016-05-08T06:04:10.648Z,23.15
2016-05-08T06:05:10.682Z,23.18
2016-05-08T06:06:10.715Z,23.15
2016-05-08T06:07:10.764Z,23.16
2016-05-08T06:08:10.642Z,23.15
2016-05-08T06:09:10.848Z,23.14
2016-05-08T06:10:10.882Z,23.15
2016-05-08T06:11:10.917Z,23.22
2016-05-08T06:12:10.966Z,23.18
2016-05-08T06:13:11.000Z,23.18
2016-05-08T06:14:11.050Z,23.14
2016-05-08T06:15:11.099Z,23.15
2016-05-08T06:16:11.133Z,23.18
2016-05-08T06:17:11.010Z,23.15
2016-05-08T06:18:11.216Z,23.15
2016-05-08T06:19:11.250Z,23.18
2016-05-08T06:20:11.285Z,23.15
2016-05-08T06:21:11.334Z,23.21
2016-05-08T06:22:11.368Z,23.14
2016-05-08T06:23:11.401Z,23.16
2016-05-08T06:24:11.451Z,23.24
2016-05-08T06:25:11.485Z,23.21
2016-05-08T06:26:11.534Z,23.19
2016-05-08T06:27:11.569Z,23.16
2016-05-08T06:28:11.618Z,23.16
2016-05-08T06:29:11.652Z,23.26
2016-05-08T06:30:11.701Z,23.25
2016-05-08T06:31:11.736Z,23.28
2016-05-08T06:32:11.629Z,23.22
2016-05-08T06:33:11.819Z,23.25
2016-05-08T06:34:11.853Z,23.26
2016-05-08T06:35:11.903Z,23.25
2016-05-08T06:36:11.937Z,23.24
2016-05-08T06:37:11.970Z,23.19
2016-05-08T06:38:12.036Z,23.25
2016-05-08T06:39:12.053Z,23.25
2016-05-08T06:40:12.103Z,23.24
2016-05-08T06:41:12.138Z,23.28
2016-05-08T06:42:12.172Z,23.26
2016-05-08T06:43:12.081Z,23.22
2016-05-08T06:44:12.255Z,23.22
2016-05-08T06:45:12.320Z,23.26
2016-05-08T06:46:12.355Z,23.22
2016-05-08T06:47:12.388Z,23.26
2016-05-08T06:48:12.422Z,23.25
2016-05-08T06:49:12.456Z,23.26
2016-05-08T06:50:12.505Z,23.21
2016-05-08T06:51:12.555Z,23.25
2016-05-08T06:52:12.589Z,23.21
2016-05-08T06:53:12.624Z,23.19
2016-05-08T06:54:12.673Z,23.32
2016-05-08T06:55:12.707Z,23.29
2016-05-08T06:56:12.756Z,23.26
2016-05-08T06:57:12.790Z,23.28
2016-05-08T06:58:12.683Z,23.19
2016-05-08T06:59:12.873Z,23.26
2016-05-08T07:00:12.907Z,23.26
2016-05-08T07:01:12.957Z,23.29
2016-05-08T07:02:12.991Z,23.26
2016-05-08T07:03:13.025Z,23.29
2016-05-08T07:04:13.075Z,23.25
2016-05-08T07:05:13.124Z,23.22
2016-05-08T07:06:13.158Z,23.28
2016-05-08T07:07:13.192Z,23.28
2016-05-08T07:08:13.085Z,23.28
2016-05-08T07:09:13.275Z,23.21
2016-05-08T07:10:13.184Z,23.24
2016-05-08T07:11:13.374Z,23.28
2016-05-08T07:12:13.408Z,23.25
2016-05-08T07:13:13.286Z,23.32
2016-05-08T07:14:13.477Z,23.35
2016-05-08T07:15:13.526Z,23.22
2016-05-08T07:16:13.560Z,23.24
2016-05-08T07:17:13.610Z,23.26
2016-05-08T07:18:13.643Z,23.29
2016-05-08T07:19:13.693Z,23.28
2016-05-08T07:20:13.727Z,23.26
2016-05-08T07:21:13.760Z,23.34
2016-05-08T07:22:13.811Z,23.29
2016-05-08T07:23:13.844Z,23.32
2016-05-08T07:24:13.894Z,23.28
2016-05-08T07:25:13.928Z,23.32
2016-05-08T07:26:13.962Z,23.26
2016-05-08T07:27:14.012Z,23.32
2016-05-08T07:28:13.921Z,23.34
2016-05-08T07:29:14.095Z,23.35
2016-05-08T07:30:14.128Z,23.35
2016-05-08T07:31:14.163Z,23.32
2016-05-08T07:32:14.212Z,23.28
2016-05-08T07:33:14.262Z,23.29
2016-05-08T07:34:14.140Z,23.37
2016-05-08T07:35:14.345Z,23.41
2016-05-08T07:36:14.379Z,23.34
2016-05-08T07:37:14.414Z,23.34
2016-05-08T07:38:14.463Z,23.29
2016-05-08T07:39:14.497Z,23.32
2016-05-08T07:40:14.546Z,23.37
2016-05-08T07:41:14.581Z,23.29
2016-05-08T07:42:14.614Z,23.37
2016-05-08T07:43:14.508Z,23.38
2016-05-08T07:44:14.713Z,23.34
2016-05-08T07:45:14.747Z,23.25
2016-05-08T07:46:14.797Z,23.35
2016-05-08T07:47:14.831Z,23.32
2016-05-08T07:48:14.864Z,23.38
2016-05-08T07:49:14.913Z,23.26
2016-05-08T07:50:14.948Z,23.29
2016-05-08T07:51:14.997Z,23.26
2016-05-08T07:52:15.032Z,23.29
2016-05-08T07:53:15.066Z,23.29
2016-05-08T07:54:15.115Z,23.26
2016-05-08T07:55:15.165Z,23.35
2016-05-08T07:56:15.183Z,23.29
2016-05-08T07:57:15.232Z,23.26
2016-05-08T07:58:15.126Z,23.29
2016-05-08T07:59:15.316Z,23.41
2016-05-08T08:00:15.350Z,23.37
2016-05-08T08:01:15.399Z,23.35
2016-05-08T08:02:15.434Z,23.38
2016-05-08T08:03:15.483Z,23.34
2016-05-08T08:04:15.517Z,23.32
2016-05-08T08:05:15.551Z,23.4
2016-05-08T08:06:15.601Z,23.4
2016-05-08T08:07:15.634Z,23.28
2016-05-08T08:08:15.684Z,23.37
2016-05-08T08:09:15.718Z,23.4
2016-05-08T08:10:15.783Z,23.38
2016-05-08T08:11:15.801Z,23.41
2016-05-08T08:12:15.836Z,23.38
2016-05-08T08:13:16.463Z,23.38
2016-05-08T08:14:15.919Z,23.35
2016-05-08T08:15:15.969Z,23.41
2016-05-08T08:16:16.003Z,23.41
2016-05-08T08:17:16.052Z,23.37
2016-05-08T08:18:16.086Z,23.4
2016-05-08T08:19:15.995Z,23.38
2016-05-08T08:20:16.013Z,23.48
2016-05-08T08:21:16.203Z,23.47
2016-05-08T08:22:16.253Z,23.47
2016-05-08T08:23:16.287Z,23.47
2016-05-08T08:24:16.336Z,23.42
2016-05-08T08:25:16.371Z,23.44
2016-05-08T08:26:16.404Z,23.45
2016-05-08T08:27:16.454Z,23.44
2016-05-08T08:28:16.504Z,23.45
2016-05-08T08:29:16.538Z,23.47
2016-05-08T08:30:16.571Z,23.5
2016-05-08T08:31:16.621Z,23.47
2016-05-08T08:32:16.655Z,23.5
2016-05-08T08:33:16.704Z,23.53
2016-05-08T08:34:16.738Z,23.53
2016-05-08T08:35:16.772Z,23.6
2016-05-08T08:36:16.822Z,23.56
2016-05-08T08:37:16.856Z,23.55
2016-05-08T08:38:16.906Z,23.59
2016-05-08T08:39:16.939Z,23.6
2016-05-08T08:40:16.989Z,23.5
2016-05-08T08:41:17.023Z,23.53
2016-05-08T08:42:17.073Z,23.62
2016-05-08T08:43:17.247Z,23.59
2016-05-08T08:44:17.139Z,23.66
2016-05-08T08:45:17.189Z,23.55
2016-05-08T08:46:17.224Z,23.56
2016-05-08T08:47:17.117Z,23.53
2016-05-08T08:48:17.322Z,23.52
2016-05-08T08:49:17.357Z,23.55
2016-05-08T08:50:17.391Z,23.48
2016-05-08T08:51:17.441Z,23.42
2016-05-08T08:52:17.474Z,23.42
2016-05-08T08:53:17.508Z,23.4
2016-05-08T08:54:17.557Z,23.35
2016-05-08T08:55:17.607Z,23.37
2016-05-08T08:56:17.641Z,23.34
2016-05-08T08:57:17.518Z,23.32
2016-05-08T08:58:17.725Z,23.26
2016-05-08T08:59:17.759Z,23.22
2016-05-08T09:00:17.808Z,23.25
2016-05-08T09:01:17.858Z,23.22
2016-05-08T09:02:17.876Z,23.22
2016-05-08T09:03:17.926Z,23.18
2016-05-08T09:04:17.975Z,23.14
2016-05-08T09:05:18.009Z,23.18
2016-05-08T09:06:18.043Z,23.1
2016-05-08T09:07:18.092Z,23.19
2016-05-08T09:08:18.127Z,23.07
2016-05-08T09:09:18.176Z,23.12
2016-05-08T09:10:18.209Z,23.12
2016-05-08T09:11:18.245Z,23.1
2016-05-08T09:12:18.278Z,23.06
2016-05-08T09:13:18.343Z,23.04
2016-05-08T09:14:18.361Z,23.06
2016-05-08T09:15:18.411Z,23.06
2016-05-08T09:16:18.445Z,23.1
2016-05-08T09:17:18.478Z,23.06
2016-05-08T09:18:18.544Z,23.04
2016-05-08T09:19:18.577Z,23.1
2016-05-08T09:20:18.612Z,23.07
2016-05-08T09:21:18.490Z,23.06
2016-05-08T09:22:18.680Z,23.01
2016-05-08T09:23:18.730Z,22.96
2016-05-08T09:24:18.763Z,23.04
2016-05-08T09:25:18.813Z,23.01
2016-05-08T09:26:18.847Z,23.03
2016-05-08T09:27:18.896Z,22.99
2016-05-08T09:28:18.946Z,23.03
2016-05-08T09:29:18.965Z,23.04
2016-05-08T09:30:19.014Z,23
2016-05-08T09:31:19.048Z,23.01
2016-05-08T09:32:18.941Z,22.92
2016-05-08T09:33:19.146Z,22.89
2016-05-08T09:34:19.182Z,22.97
2016-05-08T09:35:19.215Z,22.99
2016-05-08T09:36:19.248Z,22.92
2016-05-08T09:37:19.298Z,23.01
2016-05-08T09:38:19.348Z,22.92
2016-05-08T09:39:19.382Z,23
2016-05-08T09:40:19.415Z,22.94
2016-05-08T09:41:19.450Z,22.96
2016-05-08T09:42:19.500Z,22.97
2016-05-08T09:43:19.689Z,23
2016-05-08T09:44:19.583Z,22.92
2016-05-08T09:45:19.616Z,23
2016-05-08T09:46:19.650Z,22.99
2016-05-08T09:47:19.545Z,22.92
2016-05-08T09:48:19.734Z,22.97
2016-05-08T09:49:19.784Z,22.96
2016-05-08T09:50:19.817Z,22.94
2016-05-08T09:51:19.852Z,22.97
2016-05-08T09:52:19.902Z,22.96
2016-05-08T09:53:19.935Z,22.89
2016-05-08T09:54:19.985Z,22.91
2016-05-08T09:55:20.018Z,22.97
2016-05-08T09:56:20.069Z,23.01
2016-05-08T09:57:20.102Z,22.94
2016-05-08T09:58:20.152Z,22.99
2016-05-08T09:59:20.186Z,22.96
2016-05-08T10:00:20.235Z,22.97
2016-05-08T10:01:20.254Z,23.06
2016-05-08T10:02:20.303Z,23.03
2016-05-08T10:03:20.337Z,22.92
2016-05-08T10:04:20.387Z,23.03
2016-05-08T10:05:20.421Z,23.06
2016-05-08T10:06:20.470Z,23.04
2016-05-08T10:07:20.504Z,23.04
2016-05-08T10:08:20.554Z,23.04
2016-05-08T10:09:20.587Z,23.06
2016-05-08T10:10:20.637Z,22.94
2016-05-08T10:11:20.670Z,22.96
2016-05-08T10:12:20.548Z,23.06
2016-05-08T10:13:20.755Z,23.01
2016-05-08T10:14:20.788Z,23.06
2016-05-08T10:15:20.823Z,23
2016-05-08T10:16:20.872Z,22.94
2016-05-08T10:17:20.906Z,23.04
2016-05-08T10:18:20.940Z,23.06
2016-05-08T10:19:20.989Z,22.99
2016-05-08T10:20:21.023Z,23.03
2016-05-08T10:21:21.073Z,23.06
2016-05-08T10:22:21.107Z,23.04
2016-05-08T10:23:21.253Z,23.01
2016-05-08T10:24:21.186Z,23.01
2016-05-08T10:25:21.236Z,23.07
2016-05-08T10:26:21.269Z,23.03
2016-05-08T10:27:21.319Z,22.97
2016-05-08T10:28:21.352Z,23.09
2016-05-08T10:29:21.402Z,23.03
2016-05-08T10:30:21.436Z,23.04
2016-05-08T10:31:21.314Z,23.06
2016-05-08T10:32:21.519Z,23.06
2016-05-08T10:33:21.554Z,23.07
2016-05-08T10:34:21.588Z,23.06
2016-05-08T10:35:21.637Z,23.07
2016-05-08T10:36:21.671Z,23.04
2016-05-08T10:37:21.564Z,23.07
2016-05-08T10:38:21.754Z,23
2016-05-08T10:39:21.788Z,23.07
2016-05-08T10:40:21.837Z,23.04
2016-05-08T10:41:21.871Z,23.1
2016-05-08T10:42:21.921Z,23.07
2016-05-08T10:43:21.956Z,23.09
2016-05-08T10:44:21.989Z,23.09
2016-05-08T10:45:22.039Z,23.1
2016-05-08T10:46:21.932Z,23.01
2016-05-08T10:47:22.123Z,23
2016-05-08T10:48:22.156Z,23.14
2016-05-08T10:49:22.206Z,23.04
2016-05-08T10:50:22.240Z,23.19
2016-05-08T10:51:22.290Z,23.18
2016-05-08T10:52:22.323Z,23.19
2016-05-08T10:53:22.358Z,23.15
2016-05-08T10:54:22.406Z,23.18
2016-05-08T10:55:22.441Z,23.16
2016-05-08T10:56:22.491Z,23.1
2016-05-08T10:57:22.525Z,23.14
2016-05-08T10:58:24.199Z,23.18
2016-05-08T10:59:22.608Z,23.19
2016-05-08T11:00:22.642Z,23.19
2016-05-08T11:01:22.691Z,23.19
2016-05-08T11:02:22.725Z,23.21
2016-05-08T11:03:22.774Z,23.18
2016-05-08T11:04:22.808Z,23.18
2016-05-08T11:05:22.842Z,23.18
2016-05-08T11:06:22.876Z,23.21
2016-05-08T11:07:22.927Z,23.18
2016-05-08T11:08:22.976Z,23.16
2016-05-08T11:09:23.025Z,23.15
2016-05-08T11:10:23.059Z,23.19
2016-05-08T11:11:23.093Z,23.15
2016-05-08T11:12:23.143Z,23.14
2016-05-08T11:13:23.176Z,23.18
2016-05-08T11:14:23.210Z,23.21
2016-05-08T11:15:23.276Z,23.16
2016-05-08T11:16:23.295Z,23.15
2016-05-08T11:17:23.329Z,23.15
2016-05-08T11:18:23.378Z,23.16
2016-05-08T11:19:23.256Z,23.25
2016-05-08T11:20:23.461Z,23.19
2016-05-08T11:21:23.511Z,23.18
2016-05-08T11:22:23.388Z,23.21
2016-05-08T11:23:23.422Z,23.18
2016-05-08T11:24:23.628Z,23.25
2016-05-08T11:25:23.678Z,23.19
2016-05-08T11:26:23.696Z,23.16
2016-05-08T11:27:23.745Z,23.15
2016-05-08T11:28:23.748Z,23.21
2016-05-08T11:29:23.829Z,23.26
2016-05-08T11:30:23.863Z,23.24
2016-05-08T11:31:23.896Z,23.19
2016-05-08T11:32:23.947Z,23.25
2016-05-08T11:33:23.981Z,23.25
2016-05-08T11:34:24.030Z,23.22
2016-05-08T11:35:24.064Z,23.19
2016-05-08T11:36:23.957Z,23.25
2016-05-08T11:37:24.147Z,23.25
2016-05-08T11:38:24.182Z,23.26
2016-05-08T11:39:24.231Z,23.25
2016-05-08T11:40:24.265Z,23.25
2016-05-08T11:41:24.315Z,23.28
2016-05-08T11:42:24.348Z,23.25
2016-05-08T11:43:24.382Z,23.24
2016-05-08T11:44:24.432Z,23.25
2016-05-08T11:45:24.481Z,23.29
2016-05-08T11:46:24.515Z,23.25
2016-05-08T11:47:24.548Z,23.21
2016-05-08T11:48:24.631Z,23.34
2016-05-08T11:49:24.723Z,23.28
2016-05-08T11:50:24.798Z,23.26
2016-05-08T11:51:24.875Z,23.28
2016-05-08T11:52:24.809Z,23.34
2016-05-08T11:53:25.021Z,23.24
2016-05-08T11:54:25.070Z,23.25
2016-05-08T11:55:25.165Z,23.26
2016-05-08T11:56:25.183Z,23.28
2016-05-08T11:57:25.231Z,23.24
2016-05-08T11:58:25.367Z,23.25
2016-05-08T11:59:25.329Z,23.26
2016-05-08T12:00:25.383Z,23.29
2016-05-08T12:01:25.423Z,23.29
2016-05-08T12:02:25.337Z,23.29
2016-05-08T12:03:25.359Z,23.26
2016-05-08T12:04:25.550Z,23.29
2016-05-08T12:05:25.602Z,23.35
2016-05-08T12:06:25.637Z,23.28
2016-05-08T12:07:25.689Z,23.29
2016-05-08T12:08:25.723Z,23.26
2016-05-08T12:09:25.618Z,23.28
2016-05-08T12:10:25.653Z,23.28
2016-05-08T12:11:25.844Z,23.32
2016-05-08T12:12:25.895Z,23.29
2016-05-08T12:13:25.943Z,23.32
2016-05-08T12:14:25.977Z,23.35
2016-05-08T12:15:26.012Z,23.38
2016-05-08T12:16:26.061Z,23.4
2016-05-08T12:17:26.095Z,23.32
2016-05-08T12:18:25.972Z,23.29
2016-05-08T12:19:26.179Z,23.38
2016-05-08T12:20:26.213Z,23.32
2016-05-08T12:21:26.262Z,23.41
2016-05-08T12:22:26.312Z,23.38
2016-05-08T12:23:26.345Z,23.32
2016-05-08T12:24:26.380Z,23.35
2016-05-08T12:25:26.413Z,23.37
2016-05-08T12:26:26.463Z,23.41
2016-05-08T12:27:26.497Z,23.37
2016-05-08T12:28:26.703Z,23.4
2016-05-08T12:29:26.611Z,23.35
2016-05-08T12:30:26.630Z,23.38
2016-05-08T12:31:26.508Z,23.41
2016-05-08T12:32:26.698Z,23.37
2016-05-08T12:33:26.747Z,23.38
2016-05-08T12:34:26.781Z,23.35
2016-05-08T12:35:26.832Z,23.38
2016-05-08T12:36:26.866Z,23.37
2016-05-08T12:37:26.915Z,23.4
2016-05-08T12:38:26.949Z,23.41
2016-05-08T12:39:26.826Z,23.34
2016-05-08T12:40:27.048Z,23.44
2016-05-08T12:41:27.066Z,23.42
2016-05-08T12:42:27.115Z,23.5
2016-05-08T12:43:27.149Z,23.47
2016-05-08T12:44:27.199Z,23.41
2016-05-08T12:45:27.233Z,23.48
2016-05-08T12:46:27.282Z,23.44
2016-05-08T12:47:27.317Z,23.47
2016-05-08T12:48:27.381Z,23.42
2016-05-08T12:49:27.244Z,23.42
2016-05-08T12:50:27.433Z,23.44
2016-05-08T12:51:27.483Z,23.45
2016-05-08T12:52:27.518Z,23.47
2016-05-08T12:53:27.551Z,23.45
2016-05-08T12:54:27.601Z,23.45
2016-05-08T12:55:27.635Z,23.45